CYLTCYRB

Guest
Details From CYLT - ALERT
To CYRB - RESOLUTE BAY
Flight Number -
Tags generated
Created
Modified
Stats Distance 600 nm / 1,111 km
Max Altitude 18,000 ft / 5,486 m
Waypoints 5
Social Downloads 1
Likes 0
Share VATSIM

Download

Looking for another format? Having issues loading an existing format? Contact us
Advertisement - Login to hide

Notes

Basic altitude profile: - Ascent Rate: 1000ft/min - Ascent Speed: 230kts - Cruise Altitude: 23000ft - Cruise Speed: 450kts - Descent Rate: 1500ft/min - Descent Speed: 250kts Options: - Use NATs: yes - Use PACOTS: yes - Use low airways: yes - Use high airways: yes

Route

CYLT LT BR84 RB CYRB

ID Type Via Altitude Latitude Longitude Leg Dist Tot Dist Heading (true) Name
O CYLT APT - 0 ft / 0 m 82.51778˚ -62.28056˚ - 0 nm - ALERT
LT NDB - 200 ft / 61 m 82.52583˚ -62.21139˚ 0 nm 0 nm 48° / 48° ALERT NDB
YEU NDB BR84 (AWY-LO) 18,000 ft / 5,486 m 79.99083˚ -85.89833˚ 261 nm 262 nm 247° / 224° EUREKA NDB
RB NDB BR84 (AWY-LO) 8,000 ft / 2,438 m 74.74714˚ -94.99503˚ 335 nm 597 nm 205° / 196° RESOLUTE BAY NDB
O CYRB APT - 0 ft / 0 m 74.71690˚ -94.96933˚ 1 nm 599 nm 167° / 167° RESOLUTE BAY

Altitude Profile

Advertisement - Login to hide

Weather


0- 5 10 15 20 25 30 35+ Temperature / ° C

Clouds and Precipitation
Forecast for 2017-12-11 18:00 UTC. Updated 4 minutes ago

Ground ~20,000 ft ~40,000 ft Winds

CYLT

Details ICAO CYLT (YLT)
Name ALERT
Region Canada
Timezone Unknown (UTC+0.0)
Stats Elevation 100 ft / 30 m (AMSL)
Location 82.517778° -62.280555°
Runways 1
Magnetic Variation 49.679° W

METAR

CYLT 111300Z 30004KT 12SM -SN FEW065 SCT130 M21/M24 A2959 RMK SC2AC1 FST OBS SLP024

Decode

TAF

Not found

Departure Runways

ID Width Length Bearing (true) Bearing (mag) Surface Threshold Offset Overrun Length
05T 150 ft / 46 m 5,463 ft / 1,665 m 48.05° 97.73° Gravel 0 ft / 0 m 0 ft / 0 m
23T 150 ft / 46 m 5,463 ft / 1,665 m 228.13° 277.81° Gravel 0 ft / 0 m 0 ft / 0 m

CYRB

Details ICAO CYRB (YRB)
Name RESOLUTE BAY
Region Canada
Timezone America/Resolute (UTC-6.0)
Stats Elevation 215 ft / 66 m (AMSL)
Location 74.716900° -94.969334°
Runways 1
Magnetic Variation 22.675° W

METAR

CYRB 111300Z 31015KT 10SM -SN FEW040 BKN053 BKN060 OVC090 M21/M24 A2962 RMK SC2SC3SC2AC1 OCNL DRSN SLP042

Decode

TAF

TAF CYRB 111138Z 1112/1212 31012KT P6SM -SN SCT020 BKN070 TEMPO 1112/1121 4SM -SN OVC020 BECMG 1118/1120 35015KT FM112100 36018KT P6SM -SN BKN030 TEMPO 1121/1212 2SM -SN BLSN OVC020 RMK NXT FCST BY 111800Z

Decode

Destination Runways

ID Width Length Bearing (true) Bearing (mag) Surface Threshold Offset Overrun Length
17T 200 ft / 61 m 6,482 ft / 1,976 m 166.69° 189.36° Gravel 0 ft / 0 m 0 ft / 0 m
35T 200 ft / 61 m 6,482 ft / 1,976 m 346.71° 9.38° Gravel 0 ft / 0 m 0 ft / 0 m

Popular Alternatives